sensor_id;sensor_type;location;lat;lon;timestamp;temperature;humidity
68511;SHT31;55512;50.102;19.958;2023-05-07T00:00:33;11.73;74.84
68511;SHT31;55512;50.102;19.958;2023-05-07T00:02:59;11.71;74.83
68511;SHT31;55512;50.102;19.958;2023-05-07T00:05:26;11.71;74.94
68511;SHT31;55512;50.102;19.958;2023-05-07T00:07:51;11.71;74.98
68511;SHT31;55512;50.102;19.958;2023-05-07T00:10:18;11.73;74.93
68511;SHT31;55512;50.102;19.958;2023-05-07T00:15:25;11.72;75.00
68511;SHT31;55512;50.102;19.958;2023-05-07T00:17:51;11.73;75.07
68511;SHT31;55512;50.102;19.958;2023-05-07T00:20:17;11.71;75.14
68511;SHT31;55512;50.102;19.958;2023-05-07T00:22:42;11.70;75.16
68511;SHT31;55512;50.102;19.958;2023-05-07T00:25:08;11.69;75.20
68511;SHT31;55512;50.102;19.958;2023-05-07T00:27:35;11.68;75.18
68511;SHT31;55512;50.102;19.958;2023-05-07T00:30:00;11.71;75.11
68511;SHT31;55512;50.102;19.958;2023-05-07T00:32:26;11.72;75.16
68511;SHT31;55512;50.102;19.958;2023-05-07T00:34:52;11.70;75.24
68511;SHT31;55512;50.102;19.958;2023-05-07T00:37:17;11.70;75.30
68511;SHT31;55512;50.102;19.958;2023-05-07T00:39:43;11.71;75.24
68511;SHT31;55512;50.102;19.958;2023-05-07T00:42:08;11.70;75.18
68511;SHT31;55512;50.102;19.958;2023-05-07T00:44:34;11.68;75.18
68511;SHT31;55512;50.102;19.958;2023-05-07T00:47:01;11.62;75.24
68511;SHT31;55512;50.102;19.958;2023-05-07T00:49:35;11.60;75.37
68511;SHT31;55512;50.102;19.958;2023-05-07T00:52:08;11.60;75.29
68511;SHT31;55512;50.102;19.958;2023-05-07T00:54:38;11.63;75.17
68511;SHT31;55512;50.102;19.958;2023-05-07T00:57:05;11.66;75.10
68511;SHT31;55512;50.102;19.958;2023-05-07T00:59:31;11.67;75.15
68511;SHT31;55512;50.102;19.958;2023-05-07T01:01:58;11.68;75.17
68511;SHT31;55512;50.102;19.958;2023-05-07T01:04:25;11.69;75.17
68511;SHT31;55512;50.102;19.958;2023-05-07T01:06:51;11.69;75.12
68511;SHT31;55512;50.102;19.958;2023-05-07T01:09:21;11.67;75.16
68511;SHT31;55512;50.102;19.958;2023-05-07T01:11:49;11.63;75.27
68511;SHT31;55512;50.102;19.958;2023-05-07T01:14:16;11.61;75.28
68511;SHT31;55512;50.102;19.958;2023-05-07T01:16:43;11.59;75.28
68511;SHT31;55512;50.102;19.958;2023-05-07T01:19:09;11.56;75.32
68511;SHT31;55512;50.102;19.958;2023-05-07T01:21:42;11.52;75.50
68511;SHT31;55512;50.102;19.958;2023-05-07T01:24:12;11.47;75.56
68511;SHT31;55512;50.102;19.958;2023-05-07T01:26:39;11.43;75.67
68511;SHT31;55512;50.102;19.958;2023-05-07T01:29:08;11.41;75.70
68511;SHT31;55512;50.102;19.958;2023-05-07T01:31:34;11.38;75.70
68511;SHT31;55512;50.102;19.958;2023-05-07T01:34:01;11.34;75.70
68511;SHT31;55512;50.102;19.958;2023-05-07T01:36:29;11.29;75.94
68511;SHT31;55512;50.102;19.958;2023-05-07T01:38:56;11.21;76.09
68511;SHT31;55512;50.102;19.958;2023-05-07T01:41:24;11.15;76.26
68511;SHT31;55512;50.102;19.958;2023-05-07T01:43:50;11.08;76.35
68511;SHT31;55512;50.102;19.958;2023-05-07T01:46:17;11.01;76.41
68511;SHT31;55512;50.102;19.958;2023-05-07T01:48:44;10.93;76.50
68511;SHT31;55512;50.102;19.958;2023-05-07T01:51:11;10.85;76.61
68511;SHT31;55512;50.102;19.958;2023-05-07T01:53:38;10.76;76.80
68511;SHT31;55512;50.102;19.958;2023-05-07T01:56:05;10.70;76.85
68511;SHT31;55512;50.102;19.958;2023-05-07T01:58:32;10.66;76.80
68511;SHT31;55512;50.102;19.958;2023-05-07T02:00:57;10.62;76.83
68511;SHT31;55512;50.102;19.958;2023-05-07T02:03:23;10.59;76.93
68511;SHT31;55512;50.102;19.958;2023-05-07T02:05:49;10.55;77.10
68511;SHT31;55512;50.102;19.958;2023-05-07T02:08:15;10.51;77.21
68511;SHT31;55512;50.102;19.958;2023-05-07T02:10:41;10.49;77.12
68511;SHT31;55512;50.102;19.958;2023-05-07T02:15:49;10.49;77.02
68511;SHT31;55512;50.102;19.958;2023-05-07T02:18:15;10.47;77.05
68511;SHT31;55512;50.102;19.958;2023-05-07T02:20:42;10.46;77.11
68511;SHT31;55512;50.102;19.958;2023-05-07T02:23:08;10.49;77.08
68511;SHT31;55512;50.102;19.958;2023-05-07T02:25:34;10.50;77.10
68511;SHT31;55512;50.102;19.958;2023-05-07T02:28:00;10.48;76.99
68511;SHT31;55512;50.102;19.958;2023-05-07T02:30:25;10.46;76.92
68511;SHT31;55512;50.102;19.958;2023-05-07T02:32:51;10.45;76.90
68511;SHT31;55512;50.102;19.958;2023-05-07T02:35:17;10.44;76.88
68511;SHT31;55512;50.102;19.958;2023-05-07T02:37:42;10.44;76.80
68511;SHT31;55512;50.102;19.958;2023-05-07T02:40:08;10.40;76.83
68511;SHT31;55512;50.102;19.958;2023-05-07T02:42:36;10.38;76.89
68511;SHT31;55512;50.102;19.958;2023-05-07T02:45:01;10.36;76.91
68511;SHT31;55512;50.102;19.958;2023-05-07T02:47:27;10.37;76.95
68511;SHT31;55512;50.102;19.958;2023-05-07T02:49:53;10.38;76.91
68511;SHT31;55512;50.102;19.958;2023-05-07T02:52:20;10.35;77.00
68511;SHT31;55512;50.102;19.958;2023-05-07T02:54:47;10.32;76.96
68511;SHT31;55512;50.102;19.958;2023-05-07T02:57:13;10.29;76.90
68511;SHT31;55512;50.102;19.958;2023-05-07T02:59:39;10.26;76.90
68511;SHT31;55512;50.102;19.958;2023-05-07T03:02:04;10.25;76.90
68511;SHT31;55512;50.102;19.958;2023-05-07T03:04:30;10.22;76.94
68511;SHT31;55512;50.102;19.958;2023-05-07T03:06:56;10.18;76.96
68511;SHT31;55512;50.102;19.958;2023-05-07T03:09:21;10.18;76.91
68511;SHT31;55512;50.102;19.958;2023-05-07T03:11:47;10.18;76.87
68511;SHT31;55512;50.102;19.958;2023-05-07T03:14:13;10.16;76.83
68511;SHT31;55512;50.102;19.958;2023-05-07T03:16:39;10.13;76.86
68511;SHT31;55512;50.102;19.958;2023-05-07T03:19:04;10.10;76.96
68511;SHT31;55512;50.102;19.958;2023-05-07T03:21:30;10.09;76.95
68511;SHT31;55512;50.102;19.958;2023-05-07T03:23:58;10.10;76.98
68511;SHT31;55512;50.102;19.958;2023-05-07T03:26:24;10.11;76.84
68511;SHT31;55512;50.102;19.958;2023-05-07T03:28:50;10.12;76.72
68511;SHT31;55512;50.102;19.958;2023-05-07T03:31:16;10.11;76.62
68511;SHT31;55512;50.102;19.958;2023-05-07T03:33:52;10.05;76.60
68511;SHT31;55512;50.102;19.958;2023-05-07T03:36:20;10.02;76.62
68511;SHT31;55512;50.102;19.958;2023-05-07T03:38:47;9.98;76.61
68511;SHT31;55512;50.102;19.958;2023-05-07T03:41:13;9.92;76.72
68511;SHT31;55512;50.102;19.958;2023-05-07T03:43:39;9.86;76.84
68511;SHT31;55512;50.102;19.958;2023-05-07T03:46:05;9.81;76.92
68511;SHT31;55512;50.102;19.958;2023-05-07T03:48:31;9.80;76.97
68511;SHT31;55512;50.102;19.958;2023-05-07T03:50:59;9.77;77.00
68511;SHT31;55512;50.102;19.958;2023-05-07T03:53:25;9.74;76.99
68511;SHT31;55512;50.102;19.958;2023-05-07T03:55:50;9.72;76.97
68511;SHT31;55512;50.102;19.958;2023-05-07T03:58:16;9.69;77.00
68511;SHT31;55512;50.102;19.958;2023-05-07T04:00:42;9.68;76.99
68511;SHT31;55512;50.102;19.958;2023-05-07T04:03:07;9.65;76.97
68511;SHT31;55512;50.102;19.958;2023-05-07T04:05:33;9.64;76.95
68511;SHT31;55512;50.102;19.958;2023-05-07T04:07:59;9.62;76.92
68511;SHT31;55512;50.102;19.958;2023-05-07T04:10:25;9.61;76.98
68511;SHT31;55512;50.102;19.958;2023-05-07T04:12:51;9.63;76.90
68511;SHT31;55512;50.102;19.958;2023-05-07T04:15:17;9.62;76.89
68511;SHT31;55512;50.102;19.958;2023-05-07T04:17:43;9.63;76.87
68511;SHT31;55512;50.102;19.958;2023-05-07T04:20:09;9.64;76.82
68511;SHT31;55512;50.102;19.958;2023-05-07T04:22:39;9.63;76.76
68511;SHT31;55512;50.102;19.958;2023-05-07T04:25:04;9.61;76.80
68511;SHT31;55512;50.102;19.958;2023-05-07T04:27:31;9.64;76.78
68511;SHT31;55512;50.102;19.958;2023-05-07T04:29:57;9.65;76.80
68511;SHT31;55512;50.102;19.958;2023-05-07T04:32:23;9.69;76.79
68511;SHT31;55512;50.102;19.958;2023-05-07T04:34:50;9.75;76.65
68511;SHT31;55512;50.102;19.958;2023-05-07T04:37:15;9.78;76.54
68511;SHT31;55512;50.102;19.958;2023-05-07T04:39:41;9.77;76.57
68511;SHT31;55512;50.102;19.958;2023-05-07T04:42:07;9.74;76.60
68511;SHT31;55512;50.102;19.958;2023-05-07T04:44:34;9.73;76.60
68511;SHT31;55512;50.102;19.958;2023-05-07T04:47:02;9.71;76.59
68511;SHT31;55512;50.102;19.958;2023-05-07T04:49:27;9.68;76.66
68511;SHT31;55512;50.102;19.958;2023-05-07T04:51:53;9.65;76.71
68511;SHT31;55512;50.102;19.958;2023-05-07T04:54:19;9.65;76.70
68511;SHT31;55512;50.102;19.958;2023-05-07T04:56:44;9.62;76.73
68511;SHT31;55512;50.102;19.958;2023-05-07T04:59:10;9.59;76.64
68511;SHT31;55512;50.102;19.958;2023-05-07T05:01:36;9.55;76.54
68511;SHT31;55512;50.102;19.958;2023-05-07T05:04:01;9.58;76.49
68511;SHT31;55512;50.102;19.958;2023-05-07T05:06:27;9.60;76.48
68511;SHT31;55512;50.102;19.958;2023-05-07T05:08:52;9.58;76.34
68511;SHT31;55512;50.102;19.958;2023-05-07T05:11:18;9.57;76.27
68511;SHT31;55512;50.102;19.958;2023-05-07T05:13:44;9.55;76.20
68511;SHT31;55512;50.102;19.958;2023-05-07T05:16:09;9.54;76.20
68511;SHT31;55512;50.102;19.958;2023-05-07T05:18:35;9.54;76.24
68511;SHT31;55512;50.102;19.958;2023-05-07T05:21:00;9.54;76.28
68511;SHT31;55512;50.102;19.958;2023-05-07T05:23:26;9.58;76.20
68511;SHT31;55512;50.102;19.958;2023-05-07T05:25:55;9.62;76.06
68511;SHT31;55512;50.102;19.958;2023-05-07T05:28:22;9.65;75.95
68511;SHT31;55512;50.102;19.958;2023-05-07T05:30:48;9.64;75.97
68511;SHT31;55512;50.102;19.958;2023-05-07T05:33:14;9.59;75.99
68511;SHT31;55512;50.102;19.958;2023-05-07T05:35:39;9.54;76.06
68511;SHT31;55512;50.102;19.958;2023-05-07T05:38:05;9.50;76.07
68511;SHT31;55512;50.102;19.958;2023-05-07T05:40:30;9.49;76.00
68511;SHT31;55512;50.102;19.958;2023-05-07T05:42:56;9.48;75.98
68511;SHT31;55512;50.102;19.958;2023-05-07T05:45:22;9.35;75.83
68511;SHT31;55512;50.102;19.958;2023-05-07T05:47:48;9.25;75.99
68511;SHT31;55512;50.102;19.958;2023-05-07T05:50:14;9.26;76.00
68511;SHT31;55512;50.102;19.958;2023-05-07T05:52:39;9.24;76.00
68511;SHT31;55512;50.102;19.958;2023-05-07T05:55:06;9.21;76.13
68511;SHT31;55512;50.102;19.958;2023-05-07T05:57:32;9.20;76.27
68511;SHT31;55512;50.102;19.958;2023-05-07T05:59:57;9.20;76.25
68511;SHT31;55512;50.102;19.958;2023-05-07T06:02:23;9.20;76.30
68511;SHT31;55512;50.102;19.958;2023-05-07T06:04:48;9.16;76.29
68511;SHT31;55512;50.102;19.958;2023-05-07T06:07:14;9.13;76.15
68511;SHT31;55512;50.102;19.958;2023-05-07T06:09:39;9.10;76.06
68511;SHT31;55512;50.102;19.958;2023-05-07T06:12:05;9.07;76.00
68511;SHT31;55512;50.102;19.958;2023-05-07T06:14:31;9.08;75.90
68511;SHT31;55512;50.102;19.958;2023-05-07T06:16:56;9.10;75.79
68511;SHT31;55512;50.102;19.958;2023-05-07T06:19:22;9.10;75.77
68511;SHT31;55512;50.102;19.958;2023-05-07T06:21:49;9.07;75.80
68511;SHT31;55512;50.102;19.958;2023-05-07T06:24:15;9.06;75.81
68511;SHT31;55512;50.102;19.958;2023-05-07T06:26:40;9.04;75.81
68511;SHT31;55512;50.102;19.958;2023-05-07T06:29:06;9.02;75.91
68511;SHT31;55512;50.102;19.958;2023-05-07T06:31:31;9.05;75.88
68511;SHT31;55512;50.102;19.958;2023-05-07T06:33:57;9.08;75.64
68511;SHT31;55512;50.102;19.958;2023-05-07T06:36:23;9.12;75.38
68511;SHT31;55512;50.102;19.958;2023-05-07T06:38:49;9.16;75.23
68511;SHT31;55512;50.102;19.958;2023-05-07T06:41:14;9.16;75.01
68511;SHT31;55512;50.102;19.958;2023-05-07T06:43:40;9.11;74.91
68511;SHT31;55512;50.102;19.958;2023-05-07T06:46:05;9.08;74.96
68511;SHT31;55512;50.102;19.958;2023-05-07T06:48:31;9.10;75.01
68511;SHT31;55512;50.102;19.958;2023-05-07T06:50:56;9.09;75.02
68511;SHT31;55512;50.102;19.958;2023-05-07T06:53:23;9.08;75.08
68511;SHT31;55512;50.102;19.958;2023-05-07T06:55:49;9.10;75.01
68511;SHT31;55512;50.102;19.958;2023-05-07T06:58:14;9.16;74.96
68511;SHT31;55512;50.102;19.958;2023-05-07T07:00:40;9.18;74.79
68511;SHT31;55512;50.102;19.958;2023-05-07T07:03:06;9.16;74.71
68511;SHT31;55512;50.102;19.958;2023-05-07T07:05:31;9.11;74.82
68511;SHT31;55512;50.102;19.958;2023-05-07T07:07:57;9.05;74.78
68511;SHT31;55512;50.102;19.958;2023-05-07T07:10:23;8.96;74.83
68511;SHT31;55512;50.102;19.958;2023-05-07T07:12:48;8.89;75.04
68511;SHT31;55512;50.102;19.958;2023-05-07T07:15:14;8.86;75.06
68511;SHT31;55512;50.102;19.958;2023-05-07T07:17:41;8.86;75.02
68511;SHT31;55512;50.102;19.958;2023-05-07T07:20:07;8.85;74.93
68511;SHT31;55512;50.102;19.958;2023-05-07T07:22:33;8.91;75.00
68511;SHT31;55512;50.102;19.958;2023-05-07T07:24:58;8.96;75.00
68511;SHT31;55512;50.102;19.958;2023-05-07T07:27:24;9.02;74.96
68511;SHT31;55512;50.102;19.958;2023-05-07T07:29:50;9.10;74.76
68511;SHT31;55512;50.102;19.958;2023-05-07T07:32:16;9.15;74.60
68511;SHT31;55512;50.102;19.958;2023-05-07T07:34:41;9.19;74.68
68511;SHT31;55512;50.102;19.958;2023-05-07T07:37:07;9.26;74.54
68511;SHT31;55512;50.102;19.958;2023-05-07T07:39:32;9.30;74.42
68511;SHT31;55512;50.102;19.958;2023-05-07T07:41:58;9.30;74.52
68511;SHT31;55512;50.102;19.958;2023-05-07T07:44:24;9.32;74.48
68511;SHT31;55512;50.102;19.958;2023-05-07T07:46:50;9.31;74.28
68511;SHT31;55512;50.102;19.958;2023-05-07T07:49:16;9.32;74.10
68511;SHT31;55512;50.102;19.958;2023-05-07T07:51:42;9.31;73.90
68511;SHT31;55512;50.102;19.958;2023-05-07T07:54:08;9.35;73.90
68511;SHT31;55512;50.102;19.958;2023-05-07T07:56:33;9.37;73.88
68511;SHT31;55512;50.102;19.958;2023-05-07T07:58:59;9.35;73.86
68511;SHT31;55512;50.102;19.958;2023-05-07T08:01:25;9.32;73.94
68511;SHT31;55512;50.102;19.958;2023-05-07T08:03:52;9.26;73.86
68511;SHT31;55512;50.102;19.958;2023-05-07T08:06:17;9.23;73.74
68511;SHT31;55512;50.102;19.958;2023-05-07T08:08:43;9.22;73.73
68511;SHT31;55512;50.102;19.958;2023-05-07T08:11:09;9.26;73.71
68511;SHT31;55512;50.102;19.958;2023-05-07T08:13:36;9.30;73.56
68511;SHT31;55512;50.102;19.958;2023-05-07T08:16:03;9.32;73.51
68511;SHT31;55512;50.102;19.958;2023-05-07T08:18:29;9.33;73.50
68511;SHT31;55512;50.102;19.958;2023-05-07T08:20:55;9.37;73.46
68511;SHT31;55512;50.102;19.958;2023-05-07T08:23:20;9.40;73.39
68511;SHT31;55512;50.102;19.958;2023-05-07T08:25:47;9.41;73.30
68511;SHT31;55512;50.102;19.958;2023-05-07T08:28:13;9.40;73.26
68511;SHT31;55512;50.102;19.958;2023-05-07T08:30:39;9.37;73.22
68511;SHT31;55512;50.102;19.958;2023-05-07T08:33:05;9.39;73.20
68511;SHT31;55512;50.102;19.958;2023-05-07T08:35:31;9.43;73.09
68511;SHT31;55512;50.102;19.958;2023-05-07T08:37:56;9.36;73.11
68511;SHT31;55512;50.102;19.958;2023-05-07T08:40:25;9.30;73.23
68511;SHT31;55512;50.102;19.958;2023-05-07T08:42:54;9.31;73.29
68511;SHT31;55512;50.102;19.958;2023-05-07T08:45:22;9.27;73.27
68511;SHT31;55512;50.102;19.958;2023-05-07T08:47:50;9.23;73.20
68511;SHT31;55512;50.102;19.958;2023-05-07T08:50:21;9.20;73.09
68511;SHT31;55512;50.102;19.958;2023-05-07T08:52:47;9.20;73.01
68511;SHT31;55512;50.102;19.958;2023-05-07T08:55:13;9.22;73.01
68511;SHT31;55512;50.102;19.958;2023-05-07T08:57:40;9.24;73.06
68511;SHT31;55512;50.102;19.958;2023-05-07T09:00:06;9.23;73.05
68511;SHT31;55512;50.102;19.958;2023-05-07T09:02:32;9.23;72.91
68511;SHT31;55512;50.102;19.958;2023-05-07T09:05:00;9.24;72.81
68511;SHT31;55512;50.102;19.958;2023-05-07T09:07:26;9.26;72.88
68511;SHT31;55512;50.102;19.958;2023-05-07T09:09:52;9.31;72.89
68511;SHT31;55512;50.102;19.958;2023-05-07T09:12:20;9.36;72.74
68511;SHT31;55512;50.102;19.958;2023-05-07T09:14:46;9.38;72.57
68511;SHT31;55512;50.102;19.958;2023-05-07T09:17:12;9.42;72.43
68511;SHT31;55512;50.102;19.958;2023-05-07T09:19:40;9.40;72.37
68511;SHT31;55512;50.102;19.958;2023-05-07T09:22:05;9.41;72.30
68511;SHT31;55512;50.102;19.958;2023-05-07T09:24:34;9.39;72.33
68511;SHT31;55512;50.102;19.958;2023-05-07T09:27:02;9.39;72.35
68511;SHT31;55512;50.102;19.958;2023-05-07T09:29:30;9.41;72.33
68511;SHT31;55512;50.102;19.958;2023-05-07T09:32:09;9.41;72.30
68511;SHT31;55512;50.102;19.958;2023-05-07T09:34:35;9.46;72.30
68511;SHT31;55512;50.102;19.958;2023-05-07T09:37:05;9.48;72.26
68511;SHT31;55512;50.102;19.958;2023-05-07T09:42:09;9.56;72.15
68511;SHT31;55512;50.102;19.958;2023-05-07T09:44:43;9.56;72.02
68511;SHT31;55512;50.102;19.958;2023-05-07T09:47:09;9.55;72.10
68511;SHT31;55512;50.102;19.958;2023-05-07T09:49:37;9.58;72.05
68511;SHT31;55512;50.102;19.958;2023-05-07T09:52:07;9.62;71.91
68511;SHT31;55512;50.102;19.958;2023-05-07T09:54:35;9.65;71.70
68511;SHT31;55512;50.102;19.958;2023-05-07T09:57:02;9.62;71.69
68511;SHT31;55512;50.102;19.958;2023-05-07T09:59:31;9.60;71.81
68511;SHT31;55512;50.102;19.958;2023-05-07T10:01:58;9.59;71.72
68511;SHT31;55512;50.102;19.958;2023-05-07T10:04:25;9.58;71.61
68511;SHT31;55512;50.102;19.958;2023-05-07T10:06:52;9.60;71.52
68511;SHT31;55512;50.102;19.958;2023-05-07T10:09:19;9.58;71.53
68511;SHT31;55512;50.102;19.958;2023-05-07T10:11:45;9.49;71.48
68511;SHT31;55512;50.102;19.958;2023-05-07T10:14:13;9.36;71.48
68511;SHT31;55512;50.102;19.958;2023-05-07T10:16:39;9.37;71.72
68511;SHT31;55512;50.102;19.958;2023-05-07T10:19:07;9.41;71.78
68511;SHT31;55512;50.102;19.958;2023-05-07T10:21:37;9.49;71.80
68511;SHT31;55512;50.102;19.958;2023-05-07T10:24:04;9.56;71.72
68511;SHT31;55512;50.102;19.958;2023-05-07T10:26:35;9.64;71.60
68511;SHT31;55512;50.102;19.958;2023-05-07T10:29:07;9.71;71.48
68511;SHT31;55512;50.102;19.958;2023-05-07T10:34:35;9.72;71.32
68511;SHT31;55512;50.102;19.958;2023-05-07T10:37:07;9.69;71.30
68511;SHT31;55512;50.102;19.958;2023-05-07T10:39:34;9.70;71.20
68511;SHT31;55512;50.102;19.958;2023-05-07T10:42:09;9.69;71.19
68511;SHT31;55512;50.102;19.958;2023-05-07T10:44:37;9.72;71.18
68511;SHT31;55512;50.102;19.958;2023-05-07T10:50:22;9.67;71.13
68511;SHT31;55512;50.102;19.958;2023-05-07T10:53:10;9.68;71.11
68511;SHT31;55512;50.102;19.958;2023-05-07T10:55:50;9.75;71.08
68511;SHT31;55512;50.102;19.958;2023-05-07T10:58:36;9.76;70.96
68511;SHT31;55512;50.102;19.958;2023-05-07T11:01:02;9.74;70.96
68511;SHT31;55512;50.102;19.958;2023-05-07T11:03:28;9.73;71.07
68511;SHT31;55512;50.102;19.958;2023-05-07T11:17:16;9.72;70.47
68511;SHT31;55512;50.102;19.958;2023-05-07T11:19:52;9.73;70.38
68511;SHT31;55512;50.102;19.958;2023-05-07T11:24:55;9.70;70.42
68511;SHT31;55512;50.102;19.958;2023-05-07T11:27:24;9.66;70.38
68511;SHT31;55512;50.102;19.958;2023-05-07T11:29:51;9.62;70.26
68511;SHT31;55512;50.102;19.958;2023-05-07T11:32:22;9.60;70.30
68511;SHT31;55512;50.102;19.958;2023-05-07T11:34:53;9.65;70.33
68511;SHT31;55512;50.102;19.958;2023-05-07T11:37:20;9.71;70.16
68511;SHT31;55512;50.102;19.958;2023-05-07T11:39:48;9.81;69.88
68511;SHT31;55512;50.102;19.958;2023-05-07T11:42:32;9.91;69.69
68511;SHT31;55512;50.102;19.958;2023-05-07T11:45:03;9.94;69.55
68511;SHT31;55512;50.102;19.958;2023-05-07T11:47:33;9.92;69.24
68511;SHT31;55512;50.102;19.958;2023-05-07T11:50:04;9.87;69.28
68511;SHT31;55512;50.102;19.958;2023-05-07T11:52:32;9.90;69.25
68511;SHT31;55512;50.102;19.958;2023-05-07T11:54:59;9.99;69.23
68511;SHT31;55512;50.102;19.958;2023-05-07T11:57:26;10.07;69.12
68511;SHT31;55512;50.102;19.958;2023-05-07T11:59:57;10.15;68.86
68511;SHT31;55512;50.102;19.958;2023-05-07T12:02:24;10.16;68.39
68511;SHT31;55512;50.102;19.958;2023-05-07T12:04:54;10.18;68.37
68511;SHT31;55512;50.102;19.958;2023-05-07T12:07:20;10.20;68.24
68511;SHT31;55512;50.102;19.958;2023-05-07T12:09:46;10.24;68.34
68511;SHT31;55512;50.102;19.958;2023-05-07T12:12:13;10.29;68.26
68511;SHT31;55512;50.102;19.958;2023-05-07T12:14:43;10.36;68.03
68511;SHT31;55512;50.102;19.958;2023-05-07T12:17:11;10.43;67.80
68511;SHT31;55512;50.102;19.958;2023-05-07T12:19:39;10.50;67.52
68511;SHT31;55512;50.102;19.958;2023-05-07T12:22:08;10.54;67.43
68511;SHT31;55512;50.102;19.958;2023-05-07T12:24:44;10.61;67.49
68511;SHT31;55512;50.102;19.958;2023-05-07T12:29:49;10.69;67.08
68511;SHT31;55512;50.102;19.958;2023-05-07T12:32:16;10.71;67.10
68511;SHT31;55512;50.102;19.958;2023-05-07T12:34:44;10.73;67.08
68511;SHT31;55512;50.102;19.958;2023-05-07T12:37:10;10.75;66.95
68511;SHT31;55512;50.102;19.958;2023-05-07T12:39:37;10.74;66.94
68511;SHT31;55512;50.102;19.958;2023-05-07T12:42:03;10.75;66.90
68511;SHT31;55512;50.102;19.958;2023-05-07T12:44:29;10.77;66.69
68511;SHT31;55512;50.102;19.958;2023-05-07T12:47:03;10.79;66.43
68511;SHT31;55512;50.102;19.958;2023-05-07T12:49:28;10.80;66.26
68511;SHT31;55512;50.102;19.958;2023-05-07T12:51:54;10.83;66.20
68511;SHT31;55512;50.102;19.958;2023-05-07T12:54:32;10.87;66.11
68511;SHT31;55512;50.102;19.958;2023-05-07T12:57:07;10.92;65.91
68511;SHT31;55512;50.102;19.958;2023-05-07T12:59:34;10.97;65.80
68511;SHT31;55512;50.102;19.958;2023-05-07T13:02:02;10.99;65.64
68511;SHT31;55512;50.102;19.958;2023-05-07T13:04:29;10.97;65.40
68511;SHT31;55512;50.102;19.958;2023-05-07T13:06:54;10.97;65.38
68511;SHT31;55512;50.102;19.958;2023-05-07T13:09:20;10.91;65.06
68511;SHT31;55512;50.102;19.958;2023-05-07T13:11:45;10.81;65.05
68511;SHT31;55512;50.102;19.958;2023-05-07T13:14:11;10.74;64.99
68511;SHT31;55512;50.102;19.958;2023-05-07T13:16:37;10.70;64.98
68511;SHT31;55512;50.102;19.958;2023-05-07T13:19:02;10.70;64.95
68511;SHT31;55512;50.102;19.958;2023-05-07T13:21:28;10.68;64.98
68511;SHT31;55512;50.102;19.958;2023-05-07T13:23:56;10.71;65.19
68511;SHT31;55512;50.102;19.958;2023-05-07T13:26:23;10.77;65.16
68511;SHT31;55512;50.102;19.958;2023-05-07T13:28:48;10.77;65.03
68511;SHT31;55512;50.102;19.958;2023-05-07T13:31:14;10.79;65.00
68511;SHT31;55512;50.102;19.958;2023-05-07T13:33:39;10.79;64.85
68511;SHT31;55512;50.102;19.958;2023-05-07T13:36:05;10.71;64.48
68511;SHT31;55512;50.102;19.958;2023-05-07T13:38:31;10.67;64.71
68511;SHT31;55512;50.102;19.958;2023-05-07T13:40:57;10.68;64.79
68511;SHT31;55512;50.102;19.958;2023-05-07T13:43:24;10.68;64.72
68511;SHT31;55512;50.102;19.958;2023-05-07T13:45:50;10.66;64.62
68511;SHT31;55512;50.102;19.958;2023-05-07T13:48:15;10.59;64.60
68511;SHT31;55512;50.102;19.958;2023-05-07T13:50:41;10.57;64.76
68511;SHT31;55512;50.102;19.958;2023-05-07T13:53:07;10.57;64.94
68511;SHT31;55512;50.102;19.958;2023-05-07T13:55:33;10.58;65.08
68511;SHT31;55512;50.102;19.958;2023-05-07T13:57:59;10.59;65.09
68511;SHT31;55512;50.102;19.958;2023-05-07T14:00:27;10.59;65.04
68511;SHT31;55512;50.102;19.958;2023-05-07T14:02:54;10.59;65.00
68511;SHT31;55512;50.102;19.958;2023-05-07T14:05:21;10.59;64.91
68511;SHT31;55512;50.102;19.958;2023-05-07T14:07:53;10.56;64.81
68511;SHT31;55512;50.102;19.958;2023-05-07T14:10:20;10.56;64.92
68511;SHT31;55512;50.102;19.958;2023-05-07T14:12:45;10.55;64.96
68511;SHT31;55512;50.102;19.958;2023-05-07T14:15:12;10.54;65.00
68511;SHT31;55512;50.102;19.958;2023-05-07T14:17:38;10.55;65.01
68511;SHT31;55512;50.102;19.958;2023-05-07T14:20:04;10.56;64.91
68511;SHT31;55512;50.102;19.958;2023-05-07T14:22:33;10.56;64.80
68511;SHT31;55512;50.102;19.958;2023-05-07T14:24:58;10.58;64.80
68511;SHT31;55512;50.102;19.958;2023-05-07T14:27:24;10.61;64.80
68511;SHT31;55512;50.102;19.958;2023-05-07T14:29:49;10.65;64.81
68511;SHT31;55512;50.102;19.958;2023-05-07T14:32:19;10.66;64.80
68511;SHT31;55512;50.102;19.958;2023-05-07T14:34:45;10.67;64.65
68511;SHT31;55512;50.102;19.958;2023-05-07T14:37:11;10.62;64.48
68511;SHT31;55512;50.102;19.958;2023-05-07T14:39:37;10.55;64.59
68511;SHT31;55512;50.102;19.958;2023-05-07T14:42:03;10.54;64.68
68511;SHT31;55512;50.102;19.958;2023-05-07T14:44:28;10.52;64.58
68511;SHT31;55512;50.102;19.958;2023-05-07T14:46:54;10.48;64.60
68511;SHT31;55512;50.102;19.958;2023-05-07T14:49:20;10.47;64.70
68511;SHT31;55512;50.102;19.958;2023-05-07T14:51:46;10.46;64.79
68511;SHT31;55512;50.102;19.958;2023-05-07T14:54:12;10.40;64.96
68511;SHT31;55512;50.102;19.958;2023-05-07T14:56:39;10.30;64.89
68511;SHT31;55512;50.102;19.958;2023-05-07T14:59:05;10.23;64.97
68511;SHT31;55512;50.102;19.958;2023-05-07T15:01:34;10.20;65.09
68511;SHT31;55512;50.102;19.958;2023-05-07T15:04:01;10.19;65.10
68511;SHT31;55512;50.102;19.958;2023-05-07T15:06:29;10.18;65.10
68511;SHT31;55512;50.102;19.958;2023-05-07T15:08:56;10.18;65.10
68511;SHT31;55512;50.102;19.958;2023-05-07T15:11:22;10.18;65.10
68511;SHT31;55512;50.102;19.958;2023-05-07T15:13:48;10.17;65.15
68511;SHT31;55512;50.102;19.958;2023-05-07T15:16:14;10.14;65.30
68511;SHT31;55512;50.102;19.958;2023-05-07T15:18:40;10.08;65.31
68511;SHT31;55512;50.102;19.958;2023-05-07T15:21:05;10.07;65.38
68511;SHT31;55512;50.102;19.958;2023-05-07T15:23:31;10.03;65.59
68511;SHT31;55512;50.102;19.958;2023-05-07T15:25:56;9.94;65.98
68511;SHT31;55512;50.102;19.958;2023-05-07T15:28:22;9.85;66.27
68511;SHT31;55512;50.102;19.958;2023-05-07T15:30:49;9.80;66.46
68511;SHT31;55512;50.102;19.958;2023-05-07T15:33:14;9.73;66.59
68511;SHT31;55512;50.102;19.958;2023-05-07T15:35:40;9.69;66.66
68511;SHT31;55512;50.102;19.958;2023-05-07T15:38:05;9.65;66.97
68511;SHT31;55512;50.102;19.958;2023-05-07T15:40:31;9.50;67.21
68511;SHT31;55512;50.102;19.958;2023-05-07T15:42:57;9.44;67.52
68511;SHT31;55512;50.102;19.958;2023-05-07T15:45:23;9.45;67.56
68511;SHT31;55512;50.102;19.958;2023-05-07T15:47:49;9.46;67.47
68511;SHT31;55512;50.102;19.958;2023-05-07T15:52:56;9.47;67.53
68511;SHT31;55512;50.102;19.958;2023-05-07T15:55:22;9.49;67.54